sensor_id;sensor_type;location;lat;lon;timestamp;temperature;humidity
20803;DHT22;10562;-33.856;151.182;2023-06-22T00:01:41;12.50;99.90
20803;DHT22;10562;-33.856;151.182;2023-06-22T00:04:12;12.70;99.90
20803;DHT22;10562;-33.856;151.182;2023-06-22T00:06:43;12.50;99.90
20803;DHT22;10562;-33.856;151.182;2023-06-22T00:09:14;12.40;99.90
20803;DHT22;10562;-33.856;151.182;2023-06-22T00:11:44;12.30;99.90
20803;DHT22;10562;-33.856;151.182;2023-06-22T00:14:15;12.20;99.90
20803;DHT22;10562;-33.856;151.182;2023-06-22T00:16:48;12.20;99.90
20803;DHT22;10562;-33.856;151.182;2023-06-22T00:19:22;12.30;99.90
20803;DHT22;10562;-33.856;151.182;2023-06-22T00:21:53;12.30;99.90
20803;DHT22;10562;-33.856;151.182;2023-06-22T00:24:27;12.40;99.90
20803;DHT22;10562;-33.856;151.182;2023-06-22T00:26:59;12.80;99.90
20803;DHT22;10562;-33.856;151.182;2023-06-22T00:29:30;13.00;99.90
20803;DHT22;10562;-33.856;151.182;2023-06-22T00:32:04;13.30;99.90
20803;DHT22;10562;-33.856;151.182;2023-06-22T00:34:35;13.70;99.90
20803;DHT22;10562;-33.856;151.182;2023-06-22T00:37:06;14.00;99.90
20803;DHT22;10562;-33.856;151.182;2023-06-22T00:39:36;14.10;99.90
20803;DHT22;10562;-33.856;151.182;2023-06-22T00:42:07;14.30;99.90
20803;DHT22;10562;-33.856;151.182;2023-06-22T00:44:38;14.20;99.90
20803;DHT22;10562;-33.856;151.182;2023-06-22T00:47:11;14.40;99.90
20803;DHT22;10562;-33.856;151.182;2023-06-22T00:49:42;14.60;99.90
20803;DHT22;10562;-33.856;151.182;2023-06-22T00:52:14;14.50;99.90
20803;DHT22;10562;-33.856;151.182;2023-06-22T00:54:48;14.60;99.90
20803;DHT22;10562;-33.856;151.182;2023-06-22T00:57:20;14.80;99.90
20803;DHT22;10562;-33.856;151.182;2023-06-22T00:59:52;14.70;99.90
20803;DHT22;10562;-33.856;151.182;2023-06-22T01:02:25;14.50;99.90
20803;DHT22;10562;-33.856;151.182;2023-06-22T01:04:57;14.60;99.90
20803;DHT22;10562;-33.856;151.182;2023-06-22T01:07:34;14.70;99.90
20803;DHT22;10562;-33.856;151.182;2023-06-22T01:10:10;14.70;99.90
20803;DHT22;10562;-33.856;151.182;2023-06-22T01:12:48;14.90;99.90
20803;DHT22;10562;-33.856;151.182;2023-06-22T01:15:25;15.00;99.90
20803;DHT22;10562;-33.856;151.182;2023-06-22T01:18:00;15.10;99.90
20803;DHT22;10562;-33.856;151.182;2023-06-22T01:20:35;15.30;99.90
20803;DHT22;10562;-33.856;151.182;2023-06-22T01:23:18;15.50;99.90
20803;DHT22;10562;-33.856;151.182;2023-06-22T01:25:57;15.60;99.90
20803;DHT22;10562;-33.856;151.182;2023-06-22T01:28:41;15.70;99.90
20803;DHT22;10562;-33.856;151.182;2023-06-22T01:31:14;15.70;99.90
20803;DHT22;10562;-33.856;151.182;2023-06-22T01:33:48;15.60;99.90
20803;DHT22;10562;-33.856;151.182;2023-06-22T01:36:21;15.80;99.90
20803;DHT22;10562;-33.856;151.182;2023-06-22T01:38:53;15.90;99.90
20803;DHT22;10562;-33.856;151.182;2023-06-22T01:41:26;15.90;99.90
20803;DHT22;10562;-33.856;151.182;2023-06-22T01:44:00;15.70;99.90
20803;DHT22;10562;-33.856;151.182;2023-06-22T01:46:32;15.70;99.90
20803;DHT22;10562;-33.856;151.182;2023-06-22T01:49:03;15.80;99.90
20803;DHT22;10562;-33.856;151.182;2023-06-22T01:51:34;15.70;99.90
20803;DHT22;10562;-33.856;151.182;2023-06-22T01:54:07;15.90;99.90
20803;DHT22;10562;-33.856;151.182;2023-06-22T01:56:38;15.90;99.90
20803;DHT22;10562;-33.856;151.182;2023-06-22T01:59:14;16.00;99.90
20803;DHT22;10562;-33.856;151.182;2023-06-22T02:01:52;16.00;99.90
20803;DHT22;10562;-33.856;151.182;2023-06-22T02:04:27;15.90;99.90
20803;DHT22;10562;-33.856;151.182;2023-06-22T02:07:01;15.80;99.90
20803;DHT22;10562;-33.856;151.182;2023-06-22T02:09:36;15.80;99.90
20803;DHT22;10562;-33.856;151.182;2023-06-22T02:12:09;15.50;99.90
20803;DHT22;10562;-33.856;151.182;2023-06-22T02:14:42;15.20;99.90
20803;DHT22;10562;-33.856;151.182;2023-06-22T02:17:14;15.00;99.90
20803;DHT22;10562;-33.856;151.182;2023-06-22T02:19:45;15.60;99.90
20803;DHT22;10562;-33.856;151.182;2023-06-22T02:22:16;15.60;99.90
20803;DHT22;10562;-33.856;151.182;2023-06-22T02:24:47;15.60;99.90
20803;DHT22;10562;-33.856;151.182;2023-06-22T02:27:18;15.60;99.90
20803;DHT22;10562;-33.856;151.182;2023-06-22T02:29:50;15.70;99.90
20803;DHT22;10562;-33.856;151.182;2023-06-22T02:32:21;15.70;99.90
20803;DHT22;10562;-33.856;151.182;2023-06-22T02:34:52;15.80;99.90
20803;DHT22;10562;-33.856;151.182;2023-06-22T02:37:23;15.90;99.90
20803;DHT22;10562;-33.856;151.182;2023-06-22T02:39:57;16.00;99.90
20803;DHT22;10562;-33.856;151.182;2023-06-22T02:42:28;16.10;99.90
20803;DHT22;10562;-33.856;151.182;2023-06-22T02:45:00;16.10;99.90
20803;DHT22;10562;-33.856;151.182;2023-06-22T02:47:31;16.10;99.90
20803;DHT22;10562;-33.856;151.182;2023-06-22T02:50:02;16.20;99.90
20803;DHT22;10562;-33.856;151.182;2023-06-22T02:52:33;16.30;99.90
20803;DHT22;10562;-33.856;151.182;2023-06-22T02:55:04;16.60;99.90
20803;DHT22;10562;-33.856;151.182;2023-06-22T02:57:35;16.70;99.90
20803;DHT22;10562;-33.856;151.182;2023-06-22T03:00:14;16.70;99.90
20803;DHT22;10562;-33.856;151.182;2023-06-22T03:02:47;16.70;99.90
20803;DHT22;10562;-33.856;151.182;2023-06-22T03:05:18;16.60;99.90
20803;DHT22;10562;-33.856;151.182;2023-06-22T03:07:49;16.50;99.90
20803;DHT22;10562;-33.856;151.182;2023-06-22T03:10:20;16.60;99.90
20803;DHT22;10562;-33.856;151.182;2023-06-22T03:12:50;16.60;99.90
20803;DHT22;10562;-33.856;151.182;2023-06-22T03:15:23;16.70;99.90
20803;DHT22;10562;-33.856;151.182;2023-06-22T03:17:57;16.60;99.90
20803;DHT22;10562;-33.856;151.182;2023-06-22T03:20:27;16.40;99.90
20803;DHT22;10562;-33.856;151.182;2023-06-22T03:23:01;16.40;99.90
20803;DHT22;10562;-33.856;151.182;2023-06-22T03:25:32;16.40;99.90
20803;DHT22;10562;-33.856;151.182;2023-06-22T03:28:03;16.30;99.90
20803;DHT22;10562;-33.856;151.182;2023-06-22T03:30:36;16.30;99.90
20803;DHT22;10562;-33.856;151.182;2023-06-22T03:33:07;16.10;99.90
20803;DHT22;10562;-33.856;151.182;2023-06-22T03:35:38;15.90;99.90
20803;DHT22;10562;-33.856;151.182;2023-06-22T03:38:10;15.70;99.90
20803;DHT22;10562;-33.856;151.182;2023-06-22T03:40:41;15.60;99.90
20803;DHT22;10562;-33.856;151.182;2023-06-22T03:43:13;15.60;99.90
20803;DHT22;10562;-33.856;151.182;2023-06-22T03:45:46;15.60;99.90
20803;DHT22;10562;-33.856;151.182;2023-06-22T03:48:17;15.70;99.90
20803;DHT22;10562;-33.856;151.182;2023-06-22T03:50:47;15.70;99.90
20803;DHT22;10562;-33.856;151.182;2023-06-22T03:53:18;15.70;99.90
20803;DHT22;10562;-33.856;151.182;2023-06-22T03:55:52;15.70;99.90
20803;DHT22;10562;-33.856;151.182;2023-06-22T03:58:23;15.80;99.90
20803;DHT22;10562;-33.856;151.182;2023-06-22T04:00:56;15.70;99.90
20803;DHT22;10562;-33.856;151.182;2023-06-22T04:03:27;15.70;99.90
20803;DHT22;10562;-33.856;151.182;2023-06-22T04:05:58;15.60;99.90
20803;DHT22;10562;-33.856;151.182;2023-06-22T04:08:29;15.60;99.90
20803;DHT22;10562;-33.856;151.182;2023-06-22T04:11:00;15.50;99.90
20803;DHT22;10562;-33.856;151.182;2023-06-22T04:13:31;15.60;99.90
20803;DHT22;10562;-33.856;151.182;2023-06-22T04:16:04;15.60;99.90
20803;DHT22;10562;-33.856;151.182;2023-06-22T04:18:35;15.60;99.90
20803;DHT22;10562;-33.856;151.182;2023-06-22T04:21:05;15.60;99.90
20803;DHT22;10562;-33.856;151.182;2023-06-22T04:23:36;15.70;99.90
20803;DHT22;10562;-33.856;151.182;2023-06-22T04:26:07;15.70;99.90
20803;DHT22;10562;-33.856;151.182;2023-06-22T04:28:38;15.60;99.90
20803;DHT22;10562;-33.856;151.182;2023-06-22T04:31:12;15.50;99.90
20803;DHT22;10562;-33.856;151.182;2023-06-22T04:33:43;15.40;99.90
20803;DHT22;10562;-33.856;151.182;2023-06-22T04:36:14;15.30;99.90
20803;DHT22;10562;-33.856;151.182;2023-06-22T04:38:45;15.30;99.90
20803;DHT22;10562;-33.856;151.182;2023-06-22T04:41:16;15.20;99.90
20803;DHT22;10562;-33.856;151.182;2023-06-22T04:43:51;15.20;99.90
20803;DHT22;10562;-33.856;151.182;2023-06-22T04:46:24;15.20;99.90
20803;DHT22;10562;-33.856;151.182;2023-06-22T04:48:55;15.20;99.90
20803;DHT22;10562;-33.856;151.182;2023-06-22T04:51:25;15.20;99.90
20803;DHT22;10562;-33.856;151.182;2023-06-22T04:53:58;15.20;99.90
20803;DHT22;10562;-33.856;151.182;2023-06-22T04:56:29;15.20;99.90
20803;DHT22;10562;-33.856;151.182;2023-06-22T04:59:00;15.20;99.90
20803;DHT22;10562;-33.856;151.182;2023-06-22T05:01:33;15.30;99.90
20803;DHT22;10562;-33.856;151.182;2023-06-22T05:04:03;15.30;99.90
20803;DHT22;10562;-33.856;151.182;2023-06-22T05:06:34;15.20;99.90
20803;DHT22;10562;-33.856;151.182;2023-06-22T05:09:05;15.20;99.90
20803;DHT22;10562;-33.856;151.182;2023-06-22T05:11:36;15.10;99.90
20803;DHT22;10562;-33.856;151.182;2023-06-22T05:14:06;15.00;99.90
20803;DHT22;10562;-33.856;151.182;2023-06-22T05:16:40;15.00;99.90
20803;DHT22;10562;-33.856;151.182;2023-06-22T05:19:11;14.90;99.90
20803;DHT22;10562;-33.856;151.182;2023-06-22T05:21:42;14.80;99.90
20803;DHT22;10562;-33.856;151.182;2023-06-22T05:24:13;14.80;99.90
20803;DHT22;10562;-33.856;151.182;2023-06-22T05:26:44;14.80;99.90
20803;DHT22;10562;-33.856;151.182;2023-06-22T05:29:16;14.80;99.90
20803;DHT22;10562;-33.856;151.182;2023-06-22T05:31:48;14.80;99.90
20803;DHT22;10562;-33.856;151.182;2023-06-22T05:34:19;14.60;99.90
20803;DHT22;10562;-33.856;151.182;2023-06-22T05:36:50;14.60;99.90
20803;DHT22;10562;-33.856;151.182;2023-06-22T05:39:21;14.50;99.90
20803;DHT22;10562;-33.856;151.182;2023-06-22T05:41:52;14.50;99.90
20803;DHT22;10562;-33.856;151.182;2023-06-22T05:44:23;14.60;99.90
20803;DHT22;10562;-33.856;151.182;2023-06-22T05:46:55;14.60;99.90
20803;DHT22;10562;-33.856;151.182;2023-06-22T05:49:26;14.60;99.90
20803;DHT22;10562;-33.856;151.182;2023-06-22T05:52:00;14.50;99.90
20803;DHT22;10562;-33.856;151.182;2023-06-22T05:54:31;14.40;99.90
20803;DHT22;10562;-33.856;151.182;2023-06-22T05:57:02;14.30;99.90
20803;DHT22;10562;-33.856;151.182;2023-06-22T05:59:32;14.00;99.90
20803;DHT22;10562;-33.856;151.182;2023-06-22T06:02:05;13.80;99.90
20803;DHT22;10562;-33.856;151.182;2023-06-22T06:04:36;13.80;99.90
20803;DHT22;10562;-33.856;151.182;2023-06-22T06:07:07;13.80;99.90
20803;DHT22;10562;-33.856;151.182;2023-06-22T06:09:38;13.90;99.90
20803;DHT22;10562;-33.856;151.182;2023-06-22T06:12:09;13.80;99.90
20803;DHT22;10562;-33.856;151.182;2023-06-22T06:14:40;13.80;99.90
20803;DHT22;10562;-33.856;151.182;2023-06-22T06:17:13;13.80;99.90
20803;DHT22;10562;-33.856;151.182;2023-06-22T06:19:43;13.80;99.90
20803;DHT22;10562;-33.856;151.182;2023-06-22T06:22:14;13.70;99.90
20803;DHT22;10562;-33.856;151.182;2023-06-22T06:24:46;13.50;99.90
20803;DHT22;10562;-33.856;151.182;2023-06-22T06:27:17;13.40;99.90
20803;DHT22;10562;-33.856;151.182;2023-06-22T06:29:48;13.40;99.90
20803;DHT22;10562;-33.856;151.182;2023-06-22T06:32:21;13.40;99.90
20803;DHT22;10562;-33.856;151.182;2023-06-22T06:34:52;13.50;99.90
20803;DHT22;10562;-33.856;151.182;2023-06-22T06:37:23;13.40;99.90
20803;DHT22;10562;-33.856;151.182;2023-06-22T06:39:54;13.40;99.90
20803;DHT22;10562;-33.856;151.182;2023-06-22T06:42:25;13.30;99.90
20803;DHT22;10562;-33.856;151.182;2023-06-22T06:44:55;13.20;99.90
20803;DHT22;10562;-33.856;151.182;2023-06-22T06:47:28;13.20;99.90
20803;DHT22;10562;-33.856;151.182;2023-06-22T06:49:59;13.10;99.90
20803;DHT22;10562;-33.856;151.182;2023-06-22T06:52:30;13.00;99.90
20803;DHT22;10562;-33.856;151.182;2023-06-22T06:55:01;12.80;99.90
20803;DHT22;10562;-33.856;151.182;2023-06-22T06:57:33;12.70;99.90
20803;DHT22;10562;-33.856;151.182;2023-06-22T07:00:06;12.60;99.90
20803;DHT22;10562;-33.856;151.182;2023-06-22T07:02:42;12.50;99.90
20803;DHT22;10562;-33.856;151.182;2023-06-22T07:05:16;12.40;99.90
20803;DHT22;10562;-33.856;151.182;2023-06-22T07:07:46;12.40;99.90
20803;DHT22;10562;-33.856;151.182;2023-06-22T07:10:18;12.50;99.90
20803;DHT22;10562;-33.856;151.182;2023-06-22T07:12:48;12.50;99.90
20803;DHT22;10562;-33.856;151.182;2023-06-22T07:15:19;12.50;99.90
20803;DHT22;10562;-33.856;151.182;2023-06-22T07:17:52;12.50;99.90
20803;DHT22;10562;-33.856;151.182;2023-06-22T07:20:23;12.40;99.90
20803;DHT22;10562;-33.856;151.182;2023-06-22T07:22:54;12.40;99.90
20803;DHT22;10562;-33.856;151.182;2023-06-22T07:25:26;12.50;99.90
20803;DHT22;10562;-33.856;151.182;2023-06-22T07:28:00;12.40;99.90
20803;DHT22;10562;-33.856;151.182;2023-06-22T07:30:31;12.30;99.90
20803;DHT22;10562;-33.856;151.182;2023-06-22T07:33:04;12.30;99.90
20803;DHT22;10562;-33.856;151.182;2023-06-22T07:35:36;12.30;99.90
20803;DHT22;10562;-33.856;151.182;2023-06-22T07:38:07;12.30;99.90
20803;DHT22;10562;-33.856;151.182;2023-06-22T07:40:37;12.30;99.90
20803;DHT22;10562;-33.856;151.182;2023-06-22T07:43:09;12.30;99.90
20803;DHT22;10562;-33.856;151.182;2023-06-22T07:45:40;12.30;99.90
20803;DHT22;10562;-33.856;151.182;2023-06-22T07:48:14;12.30;99.90
20803;DHT22;10562;-33.856;151.182;2023-06-22T07:50:45;12.30;99.90
20803;DHT22;10562;-33.856;151.182;2023-06-22T07:53:15;12.30;99.90
20803;DHT22;10562;-33.856;151.182;2023-06-22T07:55:46;12.20;99.90
20803;DHT22;10562;-33.856;151.182;2023-06-22T07:58:17;12.20;99.90
20803;DHT22;10562;-33.856;151.182;2023-06-22T08:00:48;12.30;99.90
20803;DHT22;10562;-33.856;151.182;2023-06-22T08:03:21;12.30;99.90
20803;DHT22;10562;-33.856;151.182;2023-06-22T08:05:52;12.30;99.90
20803;DHT22;10562;-33.856;151.182;2023-06-22T08:08:23;12.20;99.90
20803;DHT22;10562;-33.856;151.182;2023-06-22T08:10:53;12.20;99.90
20803;DHT22;10562;-33.856;151.182;2023-06-22T08:13:24;12.20;99.90
20803;DHT22;10562;-33.856;151.182;2023-06-22T08:15:55;12.20;99.90
20803;DHT22;10562;-33.856;151.182;2023-06-22T08:18:27;12.20;99.90
20803;DHT22;10562;-33.856;151.182;2023-06-22T08:20:58;12.20;99.90
20803;DHT22;10562;-33.856;151.182;2023-06-22T08:23:29;12.20;99.90
20803;DHT22;10562;-33.856;151.182;2023-06-22T08:26:00;12.20;99.90
20803;DHT22;10562;-33.856;151.182;2023-06-22T08:28:31;12.20;99.90
20803;DHT22;10562;-33.856;151.182;2023-06-22T08:31:01;12.20;99.90
20803;DHT22;10562;-33.856;151.182;2023-06-22T08:33:35;12.30;99.90
20803;DHT22;10562;-33.856;151.182;2023-06-22T08:36:06;12.30;99.90
20803;DHT22;10562;-33.856;151.182;2023-06-22T08:38:38;12.20;99.90
20803;DHT22;10562;-33.856;151.182;2023-06-22T08:41:09;12.20;99.90
20803;DHT22;10562;-33.856;151.182;2023-06-22T08:43:40;12.30;99.90
20803;DHT22;10562;-33.856;151.182;2023-06-22T08:46:12;12.20;99.90
20803;DHT22;10562;-33.856;151.182;2023-06-22T08:48:49;12.10;99.90
20803;DHT22;10562;-33.856;151.182;2023-06-22T08:51:20;12.00;99.90
20803;DHT22;10562;-33.856;151.182;2023-06-22T08:53:51;12.00;99.90
20803;DHT22;10562;-33.856;151.182;2023-06-22T08:56:22;11.80;99.90
20803;DHT22;10562;-33.856;151.182;2023-06-22T08:58:52;11.80;99.90
20803;DHT22;10562;-33.856;151.182;2023-06-22T09:01:23;11.80;99.90
20803;DHT22;10562;-33.856;151.182;2023-06-22T09:03:57;11.80;99.90
20803;DHT22;10562;-33.856;151.182;2023-06-22T09:06:28;11.80;99.90
20803;DHT22;10562;-33.856;151.182;2023-06-22T09:08:59;11.80;99.90
20803;DHT22;10562;-33.856;151.182;2023-06-22T09:11:30;11.80;99.90
20803;DHT22;10562;-33.856;151.182;2023-06-22T09:14:02;11.70;99.90
20803;DHT22;10562;-33.856;151.182;2023-06-22T09:16:33;11.70;99.90
20803;DHT22;10562;-33.856;151.182;2023-06-22T09:19:06;11.80;99.90
20803;DHT22;10562;-33.856;151.182;2023-06-22T09:21:37;11.80;99.90
20803;DHT22;10562;-33.856;151.182;2023-06-22T09:24:08;11.90;99.90
20803;DHT22;10562;-33.856;151.182;2023-06-22T09:26:39;11.90;99.90
20803;DHT22;10562;-33.856;151.182;2023-06-22T09:29:10;11.90;99.90
20803;DHT22;10562;-33.856;151.182;2023-06-22T09:31:41;11.90;99.90
20803;DHT22;10562;-33.856;151.182;2023-06-22T09:34:14;11.90;99.90
20803;DHT22;10562;-33.856;151.182;2023-06-22T09:36:48;12.00;99.90
20803;DHT22;10562;-33.856;151.182;2023-06-22T09:39:19;12.00;99.90
20803;DHT22;10562;-33.856;151.182;2023-06-22T09:41:49;12.00;99.90
20803;DHT22;10562;-33.856;151.182;2023-06-22T09:44:20;11.90;99.90
20803;DHT22;10562;-33.856;151.182;2023-06-22T09:46:51;11.90;99.90
20803;DHT22;10562;-33.856;151.182;2023-06-22T09:49:24;12.00;99.90
20803;DHT22;10562;-33.856;151.182;2023-06-22T09:51:54;11.90;99.90
20803;DHT22;10562;-33.856;151.182;2023-06-22T09:54:25;11.80;99.90
20803;DHT22;10562;-33.856;151.182;2023-06-22T09:56:56;11.80;99.90
20803;DHT22;10562;-33.856;151.182;2023-06-22T09:59:27;11.70;99.90
20803;DHT22;10562;-33.856;151.182;2023-06-22T10:01:59;11.70;99.90
20803;DHT22;10562;-33.856;151.182;2023-06-22T10:04:32;11.70;99.90
20803;DHT22;10562;-33.856;151.182;2023-06-22T10:07:03;11.70;99.90
20803;DHT22;10562;-33.856;151.182;2023-06-22T10:09:34;11.70;99.90
20803;DHT22;10562;-33.856;151.182;2023-06-22T10:12:05;11.70;99.90
20803;DHT22;10562;-33.856;151.182;2023-06-22T10:14:35;11.80;99.90
20803;DHT22;10562;-33.856;151.182;2023-06-22T10:17:06;11.70;99.90
20803;DHT22;10562;-33.856;151.182;2023-06-22T10:19:39;11.80;99.90
20803;DHT22;10562;-33.856;151.182;2023-06-22T10:22:10;11.80;99.90
20803;DHT22;10562;-33.856;151.182;2023-06-22T10:24:41;11.80;99.90
20803;DHT22;10562;-33.856;151.182;2023-06-22T10:27:12;11.80;99.90
20803;DHT22;10562;-33.856;151.182;2023-06-22T10:29:43;11.80;99.90
20803;DHT22;10562;-33.856;151.182;2023-06-22T10:32:14;11.80;99.90
20803;DHT22;10562;-33.856;151.182;2023-06-22T10:34:47;11.80;99.90
20803;DHT22;10562;-33.856;151.182;2023-06-22T10:37:18;11.90;99.90
20803;DHT22;10562;-33.856;151.182;2023-06-22T10:39:48;11.90;99.90
20803;DHT22;10562;-33.856;151.182;2023-06-22T10:42:20;11.90;99.90
20803;DHT22;10562;-33.856;151.182;2023-06-22T10:44:50;11.90;99.90
20803;DHT22;10562;-33.856;151.182;2023-06-22T10:47:21;11.90;99.90
20803;DHT22;10562;-33.856;151.182;2023-06-22T10:49:54;11.90;99.90
20803;DHT22;10562;-33.856;151.182;2023-06-22T10:52:24;11.80;99.90
20803;DHT22;10562;-33.856;151.182;2023-06-22T10:54:55;11.90;99.90
20803;DHT22;10562;-33.856;151.182;2023-06-22T10:57:26;11.90;99.90
20803;DHT22;10562;-33.856;151.182;2023-06-22T10:59:57;11.80;99.90
20803;DHT22;10562;-33.856;151.182;2023-06-22T11:02:28;11.80;99.90
20803;DHT22;10562;-33.856;151.182;2023-06-22T11:05:02;11.80;99.90
20803;DHT22;10562;-33.856;151.182;2023-06-22T11:07:33;11.70;99.90
20803;DHT22;10562;-33.856;151.182;2023-06-22T11:10:04;11.80;99.90
20803;DHT22;10562;-33.856;151.182;2023-06-22T11:12:35;11.80;99.90
20803;DHT22;10562;-33.856;151.182;2023-06-22T11:15:07;11.80;99.90
20803;DHT22;10562;-33.856;151.182;2023-06-22T11:17:38;11.80;99.90
20803;DHT22;10562;-33.856;151.182;2023-06-22T11:20:11;11.70;99.90
20803;DHT22;10562;-33.856;151.182;2023-06-22T11:22:42;11.70;99.90
20803;DHT22;10562;-33.856;151.182;2023-06-22T11:25:13;11.70;99.90
20803;DHT22;10562;-33.856;151.182;2023-06-22T11:27:44;11.70;99.90
20803;DHT22;10562;-33.856;151.182;2023-06-22T11:30:14;11.70;99.90
20803;DHT22;10562;-33.856;151.182;2023-06-22T11:32:45;11.70;99.90
20803;DHT22;10562;-33.856;151.182;2023-06-22T11:35:18;11.60;99.90
20803;DHT22;10562;-33.856;151.182;2023-06-22T11:37:49;11.70;99.90
20803;DHT22;10562;-33.856;151.182;2023-06-22T11:40:19;11.60;99.90
20803;DHT22;10562;-33.856;151.182;2023-06-22T11:42:50;11.60;99.90
20803;DHT22;10562;-33.856;151.182;2023-06-22T11:45:23;11.60;99.90
20803;DHT22;10562;-33.856;151.182;2023-06-22T11:47:53;11.60;99.90
20803;DHT22;10562;-33.856;151.182;2023-06-22T11:50:26;11.60;99.90
20803;DHT22;10562;-33.856;151.182;2023-06-22T11:53:03;11.60;99.90
20803;DHT22;10562;-33.856;151.182;2023-06-22T11:55:34;11.60;99.90
20803;DHT22;10562;-33.856;151.182;2023-06-22T11:58:05;11.60;99.90
20803;DHT22;10562;-33.856;151.182;2023-06-22T12:00:36;11.60;99.90
20803;DHT22;10562;-33.856;151.182;2023-06-22T12:03:06;11.60;99.90
20803;DHT22;10562;-33.856;151.182;2023-06-22T12:05:39;11.70;99.90
20803;DHT22;10562;-33.856;151.182;2023-06-22T12:08:10;11.80;99.90
20803;DHT22;10562;-33.856;151.182;2023-06-22T12:10:41;11.80;99.90
20803;DHT22;10562;-33.856;151.182;2023-06-22T12:13:12;11.70;99.90
20803;DHT22;10562;-33.856;151.182;2023-06-22T12:15:42;11.70;99.90
20803;DHT22;10562;-33.856;151.182;2023-06-22T12:18:13;11.70;99.90
20803;DHT22;10562;-33.856;151.182;2023-06-22T12:20:46;11.70;99.90
20803;DHT22;10562;-33.856;151.182;2023-06-22T12:23:17;11.70;99.90
20803;DHT22;10562;-33.856;151.182;2023-06-22T12:25:48;11.80;99.90
20803;DHT22;10562;-33.856;151.182;2023-06-22T12:28:18;11.80;99.90
20803;DHT22;10562;-33.856;151.182;2023-06-22T12:30:51;11.80;99.90
20803;DHT22;10562;-33.856;151.182;2023-06-22T12:33:21;11.80;99.90
20803;DHT22;10562;-33.856;151.182;2023-06-22T12:35:54;11.70;99.90
20803;DHT22;10562;-33.856;151.182;2023-06-22T12:38:25;11.80;99.90
20803;DHT22;10562;-33.856;151.182;2023-06-22T12:40:56;11.70;99.90
20803;DHT22;10562;-33.856;151.182;2023-06-22T12:43:26;11.80;99.90
20803;DHT22;10562;-33.856;151.182;2023-06-22T12:45:57;11.70;99.90
20803;DHT22;10562;-33.856;151.182;2023-06-22T12:48:28;11.70;99.90
20803;DHT22;10562;-33.856;151.182;2023-06-22T12:51:01;11.60;99.90
20803;DHT22;10562;-33.856;151.182;2023-06-22T12:53:31;11.60;99.90
20803;DHT22;10562;-33.856;151.182;2023-06-22T12:56:02;11.60;99.90
20803;DHT22;10562;-33.856;151.182;2023-06-22T12:58:33;11.60;99.90
20803;DHT22;10562;-33.856;151.182;2023-06-22T13:01:04;11.60;99.90
20803;DHT22;10562;-33.856;151.182;2023-06-22T13:03:34;11.50;99.90
20803;DHT22;10562;-33.856;151.182;2023-06-22T13:06:07;11.50;99.90
20803;DHT22;10562;-33.856;151.182;2023-06-22T13:08:38;11.50;99.90
20803;DHT22;10562;-33.856;151.182;2023-06-22T13:11:09;11.50;99.90
20803;DHT22;10562;-33.856;151.182;2023-06-22T13:13:40;11.50;99.90
20803;DHT22;10562;-33.856;151.182;2023-06-22T13:16:11;11.50;99.90
20803;DHT22;10562;-33.856;151.182;2023-06-22T13:18:42;11.50;99.90
20803;DHT22;10562;-33.856;151.182;2023-06-22T13:21:14;11.50;99.90
20803;DHT22;10562;-33.856;151.182;2023-06-22T13:23:45;11.50;99.90
20803;DHT22;10562;-33.856;151.182;2023-06-22T13:26:16;11.50;99.90
20803;DHT22;10562;-33.856;151.182;2023-06-22T13:28:47;11.50;99.90
20803;DHT22;10562;-33.856;151.182;2023-06-22T13:31:17;11.50;99.90
20803;DHT22;10562;-33.856;151.182;2023-06-22T13:33:48;11.50;99.90
20803;DHT22;10562;-33.856;151.182;2023-06-22T13:36:22;11.50;99.90
20803;DHT22;10562;-33.856;151.182;2023-06-22T13:38:53;11.60;99.90
20803;DHT22;10562;-33.856;151.182;2023-06-22T13:41:23;11.60;99.90
20803;DHT22;10562;-33.856;151.182;2023-06-22T13:43:54;11.60;99.90
20803;DHT22;10562;-33.856;151.182;2023-06-22T13:46:25;11.50;99.90
20803;DHT22;10562;-33.856;151.182;2023-06-22T13:48:56;11.60;99.90
20803;DHT22;10562;-33.856;151.182;2023-06-22T13:51:28;11.60;99.90
20803;DHT22;10562;-33.856;151.182;2023-06-22T13:53:59;11.60;99.90
20803;DHT22;10562;-33.856;151.182;2023-06-22T13:56:30;11.60;99.90
20803;DHT22;10562;-33.856;151.182;2023-06-22T13:59:01;11.60;99.90
20803;DHT22;10562;-33.856;151.182;2023-06-22T14:01:32;11.60;99.90
20803;DHT22;10562;-33.856;151.182;2023-06-22T14:04:02;11.60;99.90
20803;DHT22;10562;-33.856;151.182;2023-06-22T14:06:35;11.60;99.90
20803;DHT22;10562;-33.856;151.182;2023-06-22T14:09:06;11.70;99.90
20803;DHT22;10562;-33.856;151.182;2023-06-22T14:11:37;11.70;99.90
20803;DHT22;10562;-33.856;151.182;2023-06-22T14:14:07;11.70;99.90
20803;DHT22;10562;-33.856;151.182;2023-06-22T14:16:38;11.70;99.90
20803;DHT22;10562;-33.856;151.182;2023-06-22T14:19:09;11.70;99.90
20803;DHT22;10562;-33.856;151.182;2023-06-22T14:21:42;11.80;99.90
20803;DHT22;10562;-33.856;151.182;2023-06-22T14:24:13;11.70;99.90
20803;DHT22;10562;-33.856;151.182;2023-06-22T14:26:44;11.70;99.90
20803;DHT22;10562;-33.856;151.182;2023-06-22T14:29:15;11.70;99.90
20803;DHT22;10562;-33.856;151.182;2023-06-22T14:31:48;11.50;99.90
20803;DHT22;10562;-33.856;151.182;2023-06-22T14:34:19;11.50;99.90
20803;DHT22;10562;-33.856;151.182;2023-06-22T14:36:51;11.50;99.90
20803;DHT22;10562;-33.856;151.182;2023-06-22T14:39:22;11.50;99.90
20803;DHT22;10562;-33.856;151.182;2023-06-22T14:41:53;11.40;99.90
20803;DHT22;10562;-33.856;151.182;2023-06-22T14:44:24;11.40;99.90
20803;DHT22;10562;-33.856;151.182;2023-06-22T14:46:56;11.30;99.90
20803;DHT22;10562;-33.856;151.182;2023-06-22T14:49:28;11.40;99.90
20803;DHT22;10562;-33.856;151.182;2023-06-22T14:52:01;11.30;99.90
20803;DHT22;10562;-33.856;151.182;2023-06-22T14:54:32;11.30;99.90
20803;DHT22;10562;-33.856;151.182;2023-06-22T14:57:03;11.30;99.90
20803;DHT22;10562;-33.856;151.182;2023-06-22T15:02:14;11.30;99.90
20803;DHT22;10562;-33.856;151.182;2023-06-22T15:04:46;11.30;99.90
20803;DHT22;10562;-33.856;151.182;2023-06-22T15:07:19;11.40;99.90
20803;DHT22;10562;-33.856;151.182;2023-06-22T15:09:50;11.50;99.90
20803;DHT22;10562;-33.856;151.182;2023-06-22T15:12:21;11.50;99.90
20803;DHT22;10562;-33.856;151.182;2023-06-22T15:14:52;11.50;99.90
20803;DHT22;10562;-33.856;151.182;2023-06-22T15:17:22;11.40;99.90